KFEW

Francis E Warren AFB Heliport

Cheyenne, Wyoming, USA
METAR KFEW 191258Z AUTO 28006KT 10SM CLR M06/M12 A3016 RMK AO2 SLP255 T10621117 $
Observed Flight Rules
Nov-19 @ 12:58 UTC (3 hours ago) Visual Flight Rules
Wind Visibility Clouds
280° at 6 knots 10 miles
  • Clear skies
Temperatures Readings
Current -6°C / 21°F
Dewpoint -12°C / 10°F
Humidity 63%
Altimeter 30.16" Hg
Pressure 1025.5 hPa
Elevation 1878
METAR KFEW 191258Z AUTO 28006KT 10SM CLR M06/M12 A3016 RMK AO2 SLP255 T10621117 $
Observed Flight Rules
Nov-19 @ 12:58 UTC
(3 hours ago)
VFR
Wind Visibility
280° at 6 knots 10 miles
Clouds
  • Clear skies
Temperature Dewpoint
-6°C / 21°F -12°C / 10°F
Humidity Altimeter Pressure
63% 30.16" Hg 1025.5 hPa